createdAt,value
2019-03-24T00:00:34.838Z,100.00
2019-03-24T00:03:03.127Z,100.00
2019-03-24T00:05:31.396Z,100.00
2019-03-24T00:07:59.675Z,100.00
2019-03-24T00:10:27.945Z,100.00
2019-03-24T00:12:56.229Z,100.00
2019-03-24T00:15:26.543Z,100.00
2019-03-24T00:17:54.481Z,100.00
2019-03-24T00:20:22.733Z,100.00
2019-03-24T00:22:51.014Z,100.00
2019-03-24T00:25:19.276Z,100.00
2019-03-24T00:27:47.552Z,100.00
2019-03-24T00:30:15.817Z,100.00
2019-03-24T00:32:44.112Z,100.00
2019-03-24T00:35:12.383Z,100.00
2019-03-24T00:37:40.652Z,100.00
2019-03-24T00:40:08.985Z,100.00
2019-03-24T00:42:37.229Z,100.00
2019-03-24T00:45:08.422Z,100.00
2019-03-24T00:47:36.677Z,100.00
2019-03-24T00:50:07.926Z,100.00
2019-03-24T00:52:36.217Z,100.00
2019-03-24T00:55:07.853Z,100.00
2019-03-24T00:57:37.593Z,100.00
2019-03-24T01:00:08.016Z,100.00
2019-03-24T01:02:36.267Z,100.00
2019-03-24T01:05:06.275Z,100.00
2019-03-24T01:07:34.533Z,100.00
2019-03-24T01:10:03.074Z,100.00
2019-03-24T01:12:31.365Z,100.00
2019-03-24T01:14:59.622Z,100.00
2019-03-24T01:17:27.891Z,100.00
2019-03-24T01:19:56.149Z,100.00
2019-03-24T01:22:24.404Z,100.00
2019-03-24T01:24:52.673Z,100.00
2019-03-24T01:27:20.925Z,100.00
2019-03-24T01:29:49.220Z,100.00
2019-03-24T01:32:17.483Z,100.00
2019-03-24T01:34:45.763Z,100.00
2019-03-24T01:37:14.030Z,100.00
2019-03-24T01:39:42.306Z,100.00
2019-03-24T01:42:10.560Z,100.00
2019-03-24T01:44:38.825Z,100.00
2019-03-24T01:47:07.086Z,100.00
2019-03-24T01:49:35.362Z,100.00
2019-03-24T01:52:03.637Z,100.00
2019-03-24T01:54:31.894Z,100.00
2019-03-24T01:57:00.157Z,100.00
2019-03-24T01:59:28.417Z,100.00
2019-03-24T02:01:56.681Z,100.00
2019-03-24T02:04:24.941Z,100.00
2019-03-24T02:06:53.228Z,100.00
2019-03-24T02:09:21.494Z,100.00
2019-03-24T02:11:50.903Z,100.00
2019-03-24T02:14:19.299Z,100.00
2019-03-24T02:16:47.564Z,100.00
2019-03-24T02:19:15.827Z,100.00
2019-03-24T02:21:44.094Z,100.00
2019-03-24T02:24:12.390Z,100.00
2019-03-24T02:26:40.649Z,100.00
2019-03-24T02:29:08.916Z,100.00
2019-03-24T02:31:37.184Z,100.00
2019-03-24T02:34:05.446Z,100.00
2019-03-24T02:36:33.737Z,100.00
2019-03-24T02:39:02.045Z,100.00
2019-03-24T02:41:30.298Z,100.00
2019-03-24T02:43:58.569Z,100.00
2019-03-24T02:46:26.823Z,100.00
2019-03-24T02:48:55.090Z,100.00
2019-03-24T02:51:23.357Z,100.00
2019-03-24T02:53:51.639Z,100.00
2019-03-24T02:56:19.912Z,100.00
2019-03-24T02:58:48.172Z,100.00
2019-03-24T03:01:16.429Z,100.00
2019-03-24T03:03:44.731Z,100.00
2019-03-24T03:06:12.972Z,100.00
2019-03-24T03:08:41.221Z,100.00
2019-03-24T03:11:09.495Z,100.00
2019-03-24T03:13:37.756Z,100.00
2019-03-24T03:16:06.034Z,100.00
2019-03-24T03:18:34.276Z,100.00
2019-03-24T03:21:02.535Z,100.00
2019-03-24T03:23:30.805Z,100.00
2019-03-24T03:25:59.090Z,100.00
2019-03-24T03:28:27.362Z,100.00
2019-03-24T03:30:55.634Z,100.00
2019-03-24T03:33:23.894Z,100.00
2019-03-24T03:35:52.261Z,100.00
2019-03-24T03:38:20.532Z,100.00
2019-03-24T03:40:48.810Z,100.00
2019-03-24T03:43:17.067Z,100.00
2019-03-24T03:45:45.348Z,100.00
2019-03-24T03:48:13.606Z,100.00
2019-03-24T03:50:41.864Z,100.00
2019-03-24T03:53:10.129Z,100.00
2019-03-24T03:55:38.404Z,100.00
2019-03-24T03:58:06.685Z,100.00
2019-03-24T04:00:35.993Z,100.00
2019-03-24T04:03:04.329Z,100.00
2019-03-24T04:05:32.582Z,100.00
2019-03-24T04:08:01.523Z,100.00
2019-03-24T04:10:29.886Z,100.00
2019-03-24T04:12:58.134Z,100.00
2019-03-24T04:15:26.474Z,100.00
2019-03-24T04:17:54.725Z,100.00
2019-03-24T04:20:23.021Z,100.00
2019-03-24T04:22:51.355Z,100.00
2019-03-24T04:25:19.627Z,100.00
2019-03-24T04:27:47.894Z,100.00
2019-03-24T04:30:16.163Z,100.00
2019-03-24T04:32:44.415Z,100.00
2019-03-24T04:35:12.710Z,100.00
2019-03-24T04:37:40.968Z,100.00
2019-03-24T04:40:09.258Z,100.00
2019-03-24T04:42:37.493Z,100.00
2019-03-24T04:45:05.883Z,100.00
2019-03-24T04:47:34.176Z,100.00
2019-03-24T04:50:02.441Z,100.00
2019-03-24T04:52:30.721Z,100.00
2019-03-24T04:54:58.988Z,100.00
2019-03-24T04:57:27.241Z,100.00
2019-03-24T04:59:55.501Z,100.00
2019-03-24T05:02:23.766Z,100.00
2019-03-24T05:04:52.025Z,100.00
2019-03-24T05:07:20.305Z,100.00
2019-03-24T05:09:48.598Z,100.00
2019-03-24T05:12:16.856Z,100.00
2019-03-24T05:14:45.166Z,100.00
2019-03-24T05:17:13.402Z,100.00
2019-03-24T05:19:41.670Z,100.00
2019-03-24T05:22:09.939Z,100.00
2019-03-24T05:24:38.194Z,100.00
2019-03-24T05:27:06.462Z,100.00
2019-03-24T05:29:34.727Z,100.00
2019-03-24T05:32:02.990Z,100.00
2019-03-24T05:34:31.248Z,100.00
2019-03-24T05:36:59.506Z,100.00
2019-03-24T05:39:27.767Z,100.00
2019-03-24T05:41:56.030Z,100.00
2019-03-24T05:44:24.361Z,100.00
2019-03-24T05:46:52.650Z,100.00
2019-03-24T05:49:20.886Z,100.00
2019-03-24T05:51:49.157Z,100.00
2019-03-24T05:54:17.412Z,100.00
2019-03-24T05:56:45.676Z,100.00
2019-03-24T05:59:13.936Z,100.00
2019-03-24T06:01:42.223Z,100.00
2019-03-24T06:04:10.478Z,100.00
2019-03-24T06:06:38.738Z,100.00
2019-03-24T06:09:06.999Z,100.00
2019-03-24T06:11:35.259Z,100.00
2019-03-24T06:14:03.525Z,100.00
2019-03-24T06:16:31.783Z,100.00
2019-03-24T06:19:00.041Z,100.00
2019-03-24T06:21:28.311Z,100.00
2019-03-24T06:23:56.568Z,100.00
2019-03-24T06:26:24.830Z,100.00
2019-03-24T06:28:53.115Z,100.00
2019-03-24T06:31:21.370Z,100.00
2019-03-24T06:33:49.636Z,100.00
2019-03-24T06:36:17.900Z,100.00
2019-03-24T06:38:46.167Z,100.00
2019-03-24T06:41:14.482Z,100.00
2019-03-24T06:43:42.777Z,100.00
2019-03-24T06:46:11.033Z,100.00
2019-03-24T06:48:39.288Z,100.00
2019-03-24T06:51:07.561Z,100.00
2019-03-24T06:53:35.814Z,100.00
2019-03-24T06:56:04.076Z,100.00
2019-03-24T06:58:32.350Z,100.00
2019-03-24T07:01:00.629Z,100.00
2019-03-24T07:03:29.171Z,100.00
2019-03-24T07:05:57.434Z,100.00
2019-03-24T07:08:25.689Z,100.00
2019-03-24T07:10:53.956Z,100.00
2019-03-24T07:13:22.212Z,100.00
2019-03-24T07:15:50.477Z,100.00
2019-03-24T07:18:18.763Z,100.00
2019-03-24T07:20:47.016Z,100.00
2019-03-24T07:23:15.282Z,100.00
2019-03-24T07:25:43.538Z,100.00
2019-03-24T07:28:11.827Z,100.00
2019-03-24T07:30:40.095Z,100.00
2019-03-24T07:33:08.382Z,100.00
2019-03-24T07:35:36.670Z,100.00
2019-03-24T07:38:04.938Z,100.00
2019-03-24T07:40:33.192Z,100.00
2019-03-24T07:43:01.469Z,100.00
2019-03-24T07:45:29.730Z,100.00
2019-03-24T07:47:57.983Z,100.00
2019-03-24T07:50:26.260Z,100.00
2019-03-24T07:52:54.550Z,100.00
2019-03-24T07:55:22.806Z,100.00
2019-03-24T07:57:51.228Z,100.00
2019-03-24T08:00:28.598Z,100.00
2019-03-24T08:02:56.890Z,100.00
2019-03-24T08:05:25.155Z,100.00
2019-03-24T08:07:53.415Z,100.00
2019-03-24T08:10:21.682Z,100.00
2019-03-24T08:12:50.056Z,100.00
2019-03-24T08:15:18.316Z,100.00
2019-03-24T08:17:46.581Z,100.00
2019-03-24T08:20:14.873Z,100.00
2019-03-24T08:22:43.149Z,100.00
2019-03-24T08:25:11.416Z,100.00
2019-03-24T08:27:39.690Z,100.00
2019-03-24T08:30:07.963Z,100.00
2019-03-24T08:32:36.221Z,100.00
2019-03-24T08:35:05.923Z,100.00
2019-03-24T08:37:34.216Z,100.00
2019-03-24T08:40:02.515Z,100.00
2019-03-24T08:42:30.787Z,100.00
2019-03-24T08:44:59.058Z,100.00
2019-03-24T08:47:27.319Z,100.00
2019-03-24T08:49:55.593Z,100.00
2019-03-24T08:52:23.871Z,100.00
2019-03-24T08:54:52.136Z,100.00
2019-03-24T08:57:20.401Z,100.00
2019-03-24T08:59:48.670Z,100.00
2019-03-24T09:02:16.939Z,100.00
2019-03-24T09:04:45.217Z,99.38
2019-03-24T09:07:13.479Z,100.00
2019-03-24T09:09:41.747Z,100.00
2019-03-24T09:12:10.029Z,99.73
2019-03-24T09:14:38.291Z,90.82
2019-03-24T09:17:06.548Z,90.79
2019-03-24T09:19:34.809Z,91.79
2019-03-24T09:22:03.069Z,86.85
2019-03-24T09:24:31.324Z,88.15
2019-03-24T09:26:59.588Z,84.12
2019-03-24T09:29:27.923Z,83.66
2019-03-24T09:31:56.185Z,78.76
2019-03-24T09:34:24.443Z,77.32
2019-03-24T09:36:52.701Z,78.34
2019-03-24T09:39:20.960Z,77.65
2019-03-24T09:41:49.317Z,73.68
2019-03-24T09:44:17.582Z,73.64
2019-03-24T09:46:45.842Z,71.39
2019-03-24T09:49:14.108Z,70.09
2019-03-24T09:51:42.367Z,69.13
2019-03-24T09:54:10.646Z,69.90
2019-03-24T09:56:38.896Z,70.56
2019-03-24T09:59:07.160Z,70.24
2019-03-24T10:01:35.424Z,67.50
2019-03-24T10:04:03.683Z,67.96
2019-03-24T10:06:31.983Z,67.66
2019-03-24T10:09:00.276Z,63.40
2019-03-24T10:11:28.509Z,60.93
2019-03-24T10:13:56.801Z,60.76
2019-03-24T10:16:25.066Z,57.32
2019-03-24T10:18:53.328Z,57.92
2019-03-24T10:21:21.641Z,59.83
2019-03-24T10:23:49.923Z,58.50
2019-03-24T10:26:18.187Z,60.85
2019-03-24T10:28:46.442Z,61.07
2019-03-24T10:31:14.701Z,57.98
2019-03-24T10:33:42.966Z,60.42
2019-03-24T10:36:11.241Z,56.33
2019-03-24T10:38:39.504Z,55.89
2019-03-24T10:41:07.767Z,54.08
2019-03-24T10:43:36.029Z,52.97
2019-03-24T10:46:04.310Z,54.63
2019-03-24T10:48:33.891Z,54.94
2019-03-24T10:51:02.338Z,53.99
2019-03-24T10:53:30.619Z,53.85
2019-03-24T10:55:58.893Z,51.49
2019-03-24T10:58:27.226Z,53.65
2019-03-24T11:00:55.571Z,51.00
2019-03-24T11:03:23.836Z,51.74
2019-03-24T11:05:52.090Z,50.44
2019-03-24T11:08:20.402Z,51.84
2019-03-24T11:10:48.678Z,48.61
2019-03-24T11:13:16.939Z,48.89
2019-03-24T11:15:45.201Z,49.00
2019-03-24T11:18:13.466Z,51.03
2019-03-24T11:20:41.752Z,50.64
2019-03-24T11:23:10.012Z,50.91
2019-03-24T11:25:38.292Z,51.46
2019-03-24T11:28:06.550Z,50.21
2019-03-24T11:30:34.806Z,47.94
2019-03-24T11:33:03.083Z,49.73
2019-03-24T11:35:31.353Z,49.82
2019-03-24T11:37:59.605Z,47.15
2019-03-24T11:40:27.886Z,48.00
2019-03-24T11:42:56.172Z,47.97
2019-03-24T11:45:24.435Z,48.42
2019-03-24T11:47:52.737Z,47.13
2019-03-24T11:50:20.994Z,47.42
2019-03-24T11:52:49.257Z,47.79
2019-03-24T11:55:17.519Z,44.91
2019-03-24T11:57:45.790Z,45.35
2019-03-24T12:00:15.412Z,45.06
2019-03-24T12:02:43.673Z,46.60
2019-03-24T12:05:11.949Z,49.09
2019-03-24T12:07:40.205Z,47.44
2019-03-24T12:10:09.210Z,47.63
2019-03-24T12:12:37.510Z,47.33
2019-03-24T12:15:06.413Z,44.93
2019-03-24T12:17:34.678Z,45.57
2019-03-24T12:20:03.731Z,47.72
2019-03-24T12:22:32.004Z,47.88
2019-03-24T12:25:00.419Z,47.60
2019-03-24T12:27:28.705Z,46.12
2019-03-24T12:29:56.975Z,46.50
2019-03-24T12:32:25.246Z,46.13
2019-03-24T12:34:53.504Z,44.61
2019-03-24T12:37:21.769Z,44.48
2019-03-24T12:39:50.026Z,45.18
2019-03-24T12:42:18.313Z,44.72
2019-03-24T12:44:46.573Z,44.67
2019-03-24T12:47:14.839Z,44.74
2019-03-24T12:49:43.100Z,42.65
2019-03-24T12:52:13.122Z,42.06
2019-03-24T12:54:41.366Z,42.84
2019-03-24T12:57:09.629Z,43.66
2019-03-24T12:59:37.916Z,43.31
2019-03-24T13:02:06.176Z,43.84
2019-03-24T13:04:34.442Z,44.29
2019-03-24T13:07:02.704Z,43.84
2019-03-24T13:09:33.479Z,45.50
2019-03-24T13:12:00.981Z,44.79
2019-03-24T13:14:30.749Z,44.99
2019-03-24T13:16:59.291Z,44.46
2019-03-24T13:19:27.570Z,43.13
2019-03-24T13:21:55.851Z,44.98
2019-03-24T13:24:24.109Z,45.14
2019-03-24T13:26:52.408Z,44.60
2019-03-24T13:29:20.655Z,45.31
2019-03-24T13:31:49.020Z,45.42
2019-03-24T13:34:17.253Z,46.43
2019-03-24T13:36:45.524Z,46.80
2019-03-24T13:39:13.795Z,45.84
2019-03-24T13:41:42.063Z,46.28
2019-03-24T13:44:10.331Z,46.66
2019-03-24T13:46:38.595Z,45.30
2019-03-24T13:49:06.924Z,46.41
2019-03-24T13:51:35.174Z,45.46
2019-03-24T13:54:03.435Z,44.93
2019-03-24T13:56:31.699Z,44.06
2019-03-24T13:58:59.977Z,44.41
2019-03-24T14:01:28.255Z,43.58
2019-03-24T14:03:56.523Z,43.87
2019-03-24T14:06:24.777Z,42.64
2019-03-24T14:08:53.044Z,44.01
2019-03-24T14:11:21.304Z,44.40
2019-03-24T14:13:49.563Z,45.02
2019-03-24T14:16:17.829Z,45.25
2019-03-24T14:18:46.093Z,45.21
2019-03-24T14:21:14.386Z,44.54
2019-03-24T14:23:42.657Z,44.51
2019-03-24T14:26:10.909Z,44.73
2019-03-24T14:28:39.173Z,44.87
2019-03-24T14:31:07.465Z,44.95
2019-03-24T14:33:35.694Z,45.53
2019-03-24T14:36:03.959Z,45.58
2019-03-24T14:38:32.236Z,46.02
2019-03-24T14:41:00.505Z,45.70
2019-03-24T14:43:28.767Z,45.50
2019-03-24T14:45:57.020Z,44.41
2019-03-24T14:48:25.296Z,44.88
2019-03-24T14:50:54.983Z,43.24
2019-03-24T14:53:23.404Z,41.86
2019-03-24T14:55:51.669Z,41.54
2019-03-24T14:58:19.936Z,42.54
2019-03-24T15:00:48.963Z,43.36
2019-03-24T15:03:17.234Z,44.57
2019-03-24T15:05:45.484Z,44.91
2019-03-24T15:08:13.757Z,44.84
2019-03-24T15:10:42.011Z,45.73
2019-03-24T15:13:10.271Z,45.35
2019-03-24T15:15:38.544Z,46.31
2019-03-24T15:18:06.795Z,47.25
2019-03-24T15:20:35.075Z,47.70
2019-03-24T15:23:03.349Z,47.91
2019-03-24T15:25:31.642Z,47.51
2019-03-24T15:27:59.906Z,48.13
2019-03-24T15:30:28.160Z,48.21
2019-03-24T15:32:56.422Z,49.22
2019-03-24T15:35:24.688Z,50.58
2019-03-24T15:37:52.946Z,51.16
2019-03-24T15:40:21.225Z,50.87
2019-03-24T15:42:49.491Z,50.70
2019-03-24T15:45:17.742Z,51.27
2019-03-24T15:47:46.009Z,51.88
2019-03-24T15:50:14.269Z,53.22
2019-03-24T15:52:42.553Z,53.47
2019-03-24T15:55:10.815Z,53.12
2019-03-24T15:57:39.081Z,53.49
2019-03-24T16:00:07.415Z,53.43
2019-03-24T16:02:35.673Z,53.62
2019-03-24T16:05:05.676Z,54.08
2019-03-24T16:07:34.009Z,54.58
2019-03-24T16:10:02.270Z,55.59
2019-03-24T16:12:30.527Z,56.70
2019-03-24T16:14:58.794Z,59.09
2019-03-24T16:17:27.061Z,59.89
2019-03-24T16:19:55.319Z,60.96
2019-03-24T16:22:23.616Z,61.63
2019-03-24T16:24:51.883Z,62.83
2019-03-24T16:27:20.146Z,64.44
2019-03-24T16:29:48.412Z,72.00
2019-03-24T16:32:16.666Z,79.64
2019-03-24T16:34:44.934Z,84.71
2019-03-24T16:37:13.207Z,88.80
2019-03-24T16:39:41.471Z,92.70
2019-03-24T16:42:09.734Z,94.38
2019-03-24T16:44:37.999Z,96.15
2019-03-24T16:47:06.266Z,98.00
2019-03-24T16:49:34.526Z,99.47
2019-03-24T16:52:02.812Z,99.53
2019-03-24T16:54:31.087Z,100.00
2019-03-24T16:56:59.361Z,100.00
2019-03-24T16:59:27.618Z,100.00
2019-03-24T17:01:55.882Z,100.00
2019-03-24T17:04:24.156Z,100.00
2019-03-24T17:06:52.414Z,100.00
2019-03-24T17:09:20.717Z,100.00
2019-03-24T17:11:48.985Z,100.00
2019-03-24T17:14:17.282Z,100.00
2019-03-24T17:16:45.514Z,100.00
2019-03-24T17:19:13.806Z,100.00
2019-03-24T17:21:49.949Z,100.00
2019-03-24T17:24:12.068Z,100.00
2019-03-24T17:26:40.344Z,100.00
2019-03-24T17:29:08.667Z,100.00
2019-03-24T17:31:36.943Z,100.00
2019-03-24T17:34:05.197Z,99.26
2019-03-24T17:36:33.463Z,97.53
2019-03-24T17:39:01.765Z,96.25
2019-03-24T17:41:30.063Z,94.30
2019-03-24T17:44:03.131Z,93.70
2019-03-24T17:46:28.304Z,95.57
2019-03-24T17:48:56.568Z,97.31
2019-03-24T17:51:24.830Z,97.40
2019-03-24T17:53:53.087Z,98.47
2019-03-24T17:56:21.348Z,99.36
2019-03-24T17:58:49.643Z,100.00
2019-03-24T18:01:17.903Z,100.00
2019-03-24T18:03:46.173Z,100.00
2019-03-24T18:06:14.471Z,100.00
2019-03-24T18:08:42.749Z,100.00
2019-03-24T18:11:11.011Z,100.00
2019-03-24T18:13:39.279Z,100.00
2019-03-24T18:16:07.551Z,100.00
2019-03-24T18:18:35.813Z,100.00
2019-03-24T18:21:04.074Z,100.00
2019-03-24T18:23:32.357Z,100.00
2019-03-24T18:26:00.611Z,100.00
2019-03-24T18:28:28.885Z,100.00
2019-03-24T18:30:57.150Z,100.00
2019-03-24T18:33:25.458Z,100.00
2019-03-24T18:35:53.686Z,100.00
2019-03-24T18:38:21.958Z,100.00
2019-03-24T18:40:50.224Z,100.00
2019-03-24T18:43:18.491Z,100.00
2019-03-24T18:45:46.751Z,100.00
2019-03-24T18:48:15.029Z,100.00
2019-03-24T18:50:43.295Z,100.00
2019-03-24T18:53:11.559Z,100.00
2019-03-24T18:55:39.821Z,100.00
2019-03-24T18:58:08.085Z,100.00
2019-03-24T19:00:36.357Z,100.00
2019-03-24T19:03:04.644Z,100.00
2019-03-24T19:05:35.096Z,100.00
2019-03-24T19:08:02.906Z,100.00
2019-03-24T19:10:31.182Z,100.00
2019-03-24T19:12:59.441Z,100.00
2019-03-24T19:15:27.709Z,100.00
2019-03-24T19:17:55.972Z,100.00
2019-03-24T19:20:24.260Z,100.00
2019-03-24T19:22:52.524Z,100.00
2019-03-24T19:25:20.787Z,100.00
2019-03-24T19:27:49.058Z,100.00
2019-03-24T19:30:18.063Z,100.00
2019-03-24T19:32:46.403Z,100.00
2019-03-24T19:35:15.138Z,100.00
2019-03-24T19:37:43.404Z,100.00
2019-03-24T19:40:14.929Z,100.00
2019-03-24T19:42:43.203Z,100.00
2019-03-24T19:45:11.473Z,100.00
2019-03-24T19:47:39.745Z,100.00
2019-03-24T19:50:08.015Z,100.00
2019-03-24T19:52:44.371Z,100.00
2019-03-24T19:55:07.250Z,100.00
2019-03-24T19:57:35.536Z,100.00
2019-03-24T20:00:05.143Z,100.00
2019-03-24T20:02:33.412Z,100.00
2019-03-24T20:05:01.688Z,100.00
2019-03-24T20:07:29.953Z,100.00
2019-03-24T20:09:58.221Z,100.00
2019-03-24T20:12:26.482Z,100.00
2019-03-24T20:14:54.759Z,100.00
2019-03-24T20:17:23.024Z,100.00
2019-03-24T20:19:51.296Z,100.00
2019-03-24T20:22:19.587Z,100.00
2019-03-24T20:24:58.545Z,100.00
2019-03-24T20:27:26.845Z,100.00
2019-03-24T20:29:55.110Z,100.00
2019-03-24T20:32:23.372Z,100.00
2019-03-24T20:34:51.639Z,100.00
2019-03-24T20:37:20.773Z,100.00
2019-03-24T20:39:49.052Z,100.00
2019-03-24T20:42:17.325Z,100.00
2019-03-24T20:44:45.595Z,100.00
2019-03-24T20:47:13.859Z,100.00
2019-03-24T20:49:42.132Z,100.00
2019-03-24T20:52:10.400Z,100.00
2019-03-24T20:54:38.710Z,100.00
2019-03-24T20:57:06.974Z,100.00
2019-03-24T20:59:35.236Z,100.00
2019-03-24T21:02:03.520Z,100.00
2019-03-24T21:04:31.775Z,100.00
2019-03-24T21:07:00.043Z,100.00
2019-03-24T21:09:28.307Z,100.00
2019-03-24T21:11:56.577Z,100.00
2019-03-24T21:14:24.851Z,100.00
2019-03-24T21:16:53.131Z,100.00
2019-03-24T21:19:21.434Z,100.00
2019-03-24T21:21:49.792Z,100.00
2019-03-24T21:24:18.153Z,100.00
2019-03-24T21:26:46.422Z,100.00
2019-03-24T21:29:14.747Z,100.00
2019-03-24T21:31:43.017Z,100.00
2019-03-24T21:34:11.276Z,100.00
2019-03-24T21:36:39.549Z,100.00
2019-03-24T21:39:08.231Z,100.00
2019-03-24T21:41:36.651Z,100.00
2019-03-24T21:44:04.915Z,100.00
2019-03-24T21:46:33.206Z,100.00
2019-03-24T21:49:01.574Z,100.00
2019-03-24T21:51:29.972Z,100.00
2019-03-24T21:53:58.260Z,100.00
2019-03-24T21:56:26.614Z,100.00
2019-03-24T21:58:54.981Z,100.00
2019-03-24T22:01:23.250Z,100.00
2019-03-24T22:03:51.546Z,100.00
2019-03-24T22:06:19.825Z,100.00
2019-03-24T22:08:48.097Z,100.00
2019-03-24T22:11:16.436Z,100.00
2019-03-24T22:13:44.714Z,100.00
2019-03-24T22:16:12.988Z,100.00
2019-03-24T22:18:41.252Z,100.00
2019-03-24T22:21:09.612Z,100.00
2019-03-24T22:23:37.941Z,100.00
2019-03-24T22:26:06.176Z,100.00
2019-03-24T22:28:34.462Z,100.00
2019-03-24T22:31:02.828Z,100.00
2019-03-24T22:33:31.126Z,100.00
2019-03-24T22:35:59.397Z,100.00
2019-03-24T22:38:27.684Z,100.00
2019-03-24T22:40:56.004Z,100.00
2019-03-24T22:43:24.306Z,100.00
2019-03-24T22:45:52.583Z,100.00
2019-03-24T22:48:20.865Z,100.00
2019-03-24T22:50:49.248Z,100.00
2019-03-24T22:53:17.535Z,100.00
2019-03-24T22:55:45.846Z,100.00
2019-03-24T22:58:14.143Z,100.00
2019-03-24T23:00:44.145Z,100.00
2019-03-24T23:03:12.477Z,100.00
2019-03-24T23:05:40.757Z,100.00
2019-03-24T23:08:09.051Z,100.00
2019-03-24T23:10:40.156Z,100.00
2019-03-24T23:13:08.461Z,100.00
2019-03-24T23:15:36.793Z,100.00
2019-03-24T23:18:05.248Z,100.00
2019-03-24T23:20:33.547Z,100.00
2019-03-24T23:23:01.885Z,100.00
2019-03-24T23:25:30.225Z,100.00
2019-03-24T23:27:58.535Z,100.00
2019-03-24T23:30:26.810Z,100.00
2019-03-24T23:32:55.083Z,100.00
2019-03-24T23:35:23.421Z,100.00
2019-03-24T23:37:51.733Z,100.00
2019-03-24T23:40:20.044Z,100.00
2019-03-24T23:42:48.503Z,100.00
2019-03-24T23:45:16.828Z,100.00
2019-03-24T23:47:45.126Z,100.00
2019-03-24T23:50:13.412Z,100.00
2019-03-24T23:52:41.821Z,100.00
2019-03-24T23:55:10.115Z,100.00
2019-03-24T23:57:38.410Z,100.00
